Time;durP1;ratioP1;P1;durP2;ratioP2;P2;SDS_P1;SDS_P2;PMS_P1;PMS_P2;Temp;Humidity;BMP_temperature;BMP_pressure;BME280_temperature;BME280_humidity;BME280_pressure;Samples;Min_cycle;Max_cycle;Signal;HPM_P1;HPM_P2
2022/07/03 00:01:52;;;;;;;5.80;3.40;;;;;;;21.25;70.83;95022.47;5094333;28;20218;-80
2022/07/03 00:04:20;;;;;;;4.70;3.47;;;;;;;21.11;71.79;95032.59;5093208;28;20283;-87
2022/07/03 00:06:47;;;;;;;5.63;4.35;;;;;;;21.05;72.14;95023.91;5093871;28;20226;-87
2022/07/03 00:09:14;;;;;;;7.35;5.30;;;;;;;21.22;71.71;95033.47;5097139;28;20222;-87
2022/07/03 00:11:41;;;;;;;7.00;4.20;;;;;;;21.34;71.67;95024.09;5099243;28;20215;-87
2022/07/03 00:14:09;;;;;;;5.55;5.00;;;;;;;21.28;71.62;95032.75;5097297;28;20523;-86
2022/07/03 00:16:36;;;;;;;5.03;3.40;;;;;;;21.40;71.97;95033.56;5093555;28;20222;-87
2022/07/03 00:19:03;;;;;;;6.38;4.22;;;;;;;21.18;72.35;95043.69;5093751;28;20213;-88
2022/07/03 00:21:35;;;;;;;4.07;3.30;;;;;;;21.24;71.85;95031.91;5093168;28;20214;-86
2022/07/03 00:24:05;;;;;;;6.60;5.38;;;;;;;20.73;74.08;95028.44;5093294;28;20214;-86
2022/07/03 00:26:36;;;;;;;6.18;5.18;;;;;;;20.58;74.57;95035.78;5091416;28;20291;-86
2022/07/03 00:29:04;;;;;;;4.22;3.28;;;;;;;21.01;73.42;95028.63;5091624;28;20558;-85
2022/07/03 00:31:34;;;;;;;5.68;3.85;;;;;;;21.17;72.57;95020.84;5091273;28;20595;-86
2022/07/03 00:34:02;;;;;;;5.63;3.97;;;;;;;21.37;71.88;95029.63;5091417;28;20624;-87
2022/07/03 00:36:34;;;;;;;7.60;3.47;;;;;;;21.04;72.92;95033.38;5092039;28;20260;-85
2022/07/03 00:39:01;;;;;;;5.13;3.50;;;;;;;21.66;71.29;95022.25;5092385;28;20607;-86
2022/07/03 00:41:29;;;;;;;5.88;3.60;;;;;;;22.08;69.39;95012.53;5092134;28;20276;-88
2022/07/03 00:43:56;;;;;;;4.93;3.47;;;;;;;21.56;70.64;95001.75;5092232;28;20234;-87
2022/07/03 00:46:24;;;;;;;6.13;3.45;;;;;;;20.98;72.70;95007.34;5092602;28;20267;-88
2022/07/03 00:48:54;;;;;;;5.25;4.75;;;;;;;21.60;71.79;95010.00;5092497;28;20309;-87
2022/07/03 00:51:23;;;;;;;4.80;4.25;;;;;;;20.81;73.59;95002.50;5092681;28;20198;-87
2022/07/03 00:53:52;;;;;;;4.95;3.55;;;;;;;20.36;75.42;95007.31;5091987;28;20289;-85
2022/07/03 00:56:24;;;;;;;5.38;3.65;;;;;;;20.61;75.38;95007.50;5078008;28;20206;-87
2022/07/03 00:58:53;;;;;;;5.07;3.83;;;;;;;20.65;75.18;95002.00;5091426;28;20226;-86
2022/07/03 01:01:22;;;;;;;5.13;3.75;;;;;;;20.94;73.96;95001.00;5091605;28;20218;-86
2022/07/03 01:03:55;;;;;;;6.28;3.83;;;;;;;20.43;75.36;95001.84;5090881;28;20246;-85
2022/07/03 01:06:25;;;;;;;5.28;3.42;;;;;;;19.86;77.73;95004.06;5091113;28;20241;-84
2022/07/03 01:08:58;;;;;;;4.85;3.83;;;;;;;19.66;78.77;95004.63;5090940;28;20700;-86
2022/07/03 01:11:32;;;;;;;4.97;3.17;;;;;;;19.64;78.82;94990.47;5091105;28;20190;-87
2022/07/03 01:14:12;;;;;;;4.93;3.13;;;;;;;19.67;79.04;94996.00;5090922;28;20767;-87
2022/07/03 01:16:42;;;;;;;6.22;3.70;;;;;;;19.71;79.03;94999.56;5090983;28;20218;-86
2022/07/03 01:19:18;;;;;;;7.30;3.80;;;;;;;20.05;77.94;94994.03;5090884;28;20268;-87
2022/07/03 01:21:58;;;;;;;5.70;3.45;;;;;;;20.84;75.01;94985.22;5091527;28;20255;-87
2022/07/03 01:24:45;;;;;;;5.13;3.58;;;;;;;20.76;74.28;94989.13;5094720;28;20229;-88
2022/07/03 01:27:17;;;;;;;7.88;3.65;;;;;;;21.39;72.49;94982.38;5081940;28;20233;-86
2022/07/03 01:30:04;;;;;;;5.60;3.38;;;;;;;21.56;71.71;94987.19;5095034;28;20190;-86
2022/07/03 01:32:34;;;;;;;7.95;3.67;;;;;;;21.54;71.73;94981.25;5095490;28;20218;-87
2022/07/03 01:35:02;;;;;;;5.10;4.60;;;;;;;21.61;71.45;94984.03;5095823;28;20705;-86
2022/07/03 01:37:32;;;;;;;7.57;3.78;;;;;;;21.63;71.11;94984.44;5095004;28;20226;-87
2022/07/03 01:39:59;;;;;;;5.38;3.65;;;;;;;21.67;70.64;94976.97;5096146;28;20705;-87
2022/07/03 01:42:29;;;;;;;5.40;3.97;;;;;;;21.54;71.03;94978.50;5096937;28;20263;-85
2022/07/03 01:45:00;;;;;;;4.80;3.28;;;;;;;21.09;72.78;94991.66;5102041;28;20849;-85
2022/07/03 01:47:27;;;;;;;5.20;3.83;;;;;;;21.19;72.73;94990.94;5097703;28;20218;-87
2022/07/03 01:49:55;;;;;;;4.90;3.35;;;;;;;21.26;72.83;94991.00;5095062;28;20222;-87
2022/07/03 01:52:22;;;;;;;4.65;3.83;;;;;;;21.23;73.19;94997.28;5094769;28;20698;-88
2022/07/03 01:54:50;;;;;;;5.93;4.10;;;;;;;21.37;72.77;94988.28;5095292;28;20198;-86
2022/07/03 01:57:17;;;;;;;9.07;4.22;;;;;;;21.52;72.72;94991.88;5094345;28;20218;-84
2022/07/03 01:59:45;;;;;;;6.78;4.30;;;;;;;21.35;73.31;94992.59;5094132;28;20218;-86
2022/07/03 02:02:23;;;;;;;6.97;4.07;;;;;;;21.26;73.71;94996.50;5094570;28;20207;-86
2022/07/03 02:05:00;;;;;;;7.30;4.13;;;;;;;21.10;74.65;94998.75;5093899;28;20233;-85
2022/07/03 02:07:40;;;;;;;5.18;4.18;;;;;;;20.78;76.38;95003.28;5093892;28;20308;-85
2022/07/03 02:10:08;;;;;;;6.72;4.18;;;;;;;21.07;75.37;94998.72;5094484;28;20263;-85
2022/07/03 02:12:40;;;;;;;7.55;4.85;;;;;;;21.05;75.28;94996.34;5094319;28;20693;-86
2022/07/03 02:15:10;;;;;;;4.75;3.63;;;;;;;21.01;75.74;94990.06;5094074;28;20222;-86
2022/07/03 02:17:40;;;;;;;5.97;4.80;;;;;;;20.94;75.73;94992.75;5093999;28;20855;-85
2022/07/03 02:20:08;;;;;;;7.13;4.88;;;;;;;21.04;75.78;94994.00;5093645;28;20240;-85
2022/07/03 02:22:36;;;;;;;9.57;4.50;;;;;;;20.97;75.67;95002.22;5093282;28;20222;-86
2022/07/03 02:25:05;;;;;;;7.40;4.78;;;;;;;21.14;75.10;94996.81;5093428;28;20390;-86
2022/07/03 02:27:42;;;;;;;10.20;5.93;;;;;;;20.91;76.23;94999.03;5093902;28;20242;-86
2022/07/03 02:30:13;;;;;;;6.80;4.68;;;;;;;20.39;78.48;94992.75;5093709;28;20395;-84
2022/07/03 02:32:45;;;;;;;8.00;4.53;;;;;;;19.99;79.93;94996.31;5093778;28;20218;-86
2022/07/03 02:35:17;;;;;;;10.07;4.53;;;;;;;20.38;79.15;94996.69;5093499;28;20199;-85
2022/07/03 02:38:01;;;;;;;7.63;4.75;;;;;;;20.29;79.47;95004.44;5094190;28;20190;-86
2022/07/03 02:40:35;;;;;;;8.05;4.45;;;;;;;20.94;76.33;95006.53;5094055;28;20194;-86
2022/07/03 02:43:15;;;;;;;10.70;5.18;;;;;;;21.38;74.93;95002.84;5094070;28;20339;-87
2022/07/03 02:45:55;;;;;;;10.93;4.45;;;;;;;21.49;74.38;94995.41;5093940;28;20233;-87
2022/07/03 02:48:29;;;;;;;9.02;4.93;;;;;;;21.13;75.43;95009.00;5082246;28;20233;-87
2022/07/03 02:51:03;;;;;;;7.30;4.53;;;;;;;20.98;76.59;95007.34;5093677;28;20220;-86
2022/07/03 02:53:39;;;;;;;7.07;5.03;;;;;;;21.19;75.68;95007.47;5093555;28;20525;-87
2022/07/03 02:56:14;;;;;;;10.55;4.85;;;;;;;21.28;74.92;95009.91;5093834;28;20305;-86
2022/07/03 02:59:04;;;;;;;5.82;4.53;;;;;;;21.18;75.66;95011.38;5093431;28;20222;-86
2022/07/03 03:01:42;;;;;;;6.78;4.30;;;;;;;21.43;74.39;95010.75;5093374;28;20275;-88
2022/07/03 03:04:15;;;;;;;6.70;4.45;;;;;;;20.99;76.45;95014.44;5093404;28;20279;-88
2022/07/03 03:06:48;;;;;;;7.00;4.80;;;;;;;20.92;76.66;95017.91;5093563;28;20230;-85
2022/07/03 03:09:19;;;;;;;7.32;4.82;;;;;;;21.09;76.10;95027.47;5081115;28;20226;-88
2022/07/03 03:11:46;;;;;;;5.97;3.85;;;;;;;21.53;74.25;95016.31;5093609;28;20227;-87
2022/07/03 03:14:15;;;;;;;6.68;4.70;;;;;;;21.66;73.65;95016.75;5093205;28;20657;-87
2022/07/03 03:16:48;;;;;;;7.70;4.80;;;;;;;21.33;74.59;95014.22;5092697;28;20727;-87
2022/07/03 03:19:15;;;;;;;6.90;4.45;;;;;;;21.56;74.00;95026.56;5093193;28;20191;-86
2022/07/03 03:21:53;;;;;;;8.85;6.53;;;;;;;21.40;74.35;95028.84;5093250;28;20206;-86
2022/07/03 03:24:21;;;;;;;7.88;6.43;;;;;;;22.08;72.23;95012.53;5092379;28;20230;-86
2022/07/03 03:26:48;;;;;;;7.93;6.25;;;;;;;22.07;72.13;95010.97;5092625;28;20242;-86
2022/07/03 03:29:16;;;;;;;7.68;6.88;;;;;;;22.11;72.02;95022.81;5093100;28;20271;-87
2022/07/03 03:31:44;;;;;;;6.63;5.88;;;;;;;22.23;71.23;95020.47;5092185;28;20237;-86
2022/07/03 03:34:11;;;;;;;8.65;4.93;;;;;;;22.44;71.09;95019.66;5092436;28;20223;-85
2022/07/03 03:36:38;;;;;;;9.75;5.13;;;;;;;22.49;70.63;95016.53;5092621;28;20692;-87
2022/07/03 03:39:05;;;;;;;10.68;7.00;;;;;;;22.72;69.73;95018.09;5093168;28;20306;-87
2022/07/03 03:41:33;;;;;;;9.30;6.88;;;;;;;23.53;67.11;95017.19;5092792;28;20218;-86
2022/07/03 03:44:00;;;;;;;9.27;6.55;;;;;;;24.07;65.22;95018.50;5092118;28;20218;-87
2022/07/03 03:46:27;;;;;;;7.68;6.22;;;;;;;24.40;64.13;95004.06;5091744;28;20198;-87
2022/07/03 03:48:55;;;;;;;6.45;5.80;;;;;;;24.99;62.24;95005.97;5092216;28;20240;-86
2022/07/03 03:51:22;;;;;;;7.88;5.53;;;;;;;25.06;62.25;95017.78;5092687;28;20252;-87
2022/07/03 03:53:49;;;;;;;7.15;5.30;;;;;;;25.23;61.95;95021.56;5092191;28;20210;-86
2022/07/03 03:56:16;;;;;;;8.73;6.82;;;;;;;25.34;61.49;95022.25;5092144;28;20205;-87
2022/07/03 03:58:44;;;;;;;7.18;6.45;;;;;;;25.48;60.91;95021.28;5092688;28;20268;-87
2022/07/03 04:01:13;;;;;;;7.28;5.82;;;;;;;25.84;59.91;95021.66;5092278;28;20310;-87
2022/07/03 04:03:41;;;;;;;7.70;6.68;;;;;;;26.61;57.73;95013.47;5091642;28;20272;-87
2022/07/03 04:06:09;;;;;;;9.57;6.45;;;;;;;26.88;56.74;95005.84;5091047;28;20738;-87
2022/07/03 04:08:36;;;;;;;6.90;5.93;;;;;;;27.21;55.91;95011.66;5092263;28;20226;-87
2022/07/03 04:11:03;;;;;;;7.85;7.05;;;;;;;27.97;53.78;95006.22;5092410;28;20292;-88
2022/07/03 04:13:29;;;;;;;7.53;6.53;;;;;;;28.46;52.33;95004.31;5092508;28;20225;-89
2022/07/03 04:15:57;;;;;;;9.05;7.63;;;;;;;29.03;50.74;95002.97;5092174;28;20738;-88
2022/07/03 04:18:24;;;;;;;10.27;7.43;;;;;;;28.75;50.78;95005.22;5091404;28;20225;-87
2022/07/03 04:20:51;;;;;;;9.15;7.20;;;;;;;28.87;51.01;95007.31;5091928;28;20643;-89
2022/07/03 04:23:20;;;;;;;7.78;7.07;;;;;;;28.78;51.13;95009.94;5091486;28;20230;-90
2022/07/03 04:25:47;;;;;;;8.77;7.40;;;;;;;29.39;50.07;95011.19;5091854;28;20245;-90
2022/07/03 04:28:14;;;;;;;8.85;7.13;;;;;;;29.09;49.83;94995.63;5092387;28;20264;-89
2022/07/03 04:30:41;;;;;;;7.53;6.72;;;;;;;29.79;48.40;94998.53;5091718;28;20218;-90
2022/07/03 04:33:07;;;;;;;8.07;7.20;;;;;;;30.36;47.38;94997.59;5091192;28;20218;-89
2022/07/03 04:35:34;;;;;;;8.65;7.45;;;;;;;31.04;45.53;94985.03;5092947;28;20218;-90
2022/07/03 04:38:01;;;;;;;8.07;7.25;;;;;;;30.65;46.57;94991.13;5092928;28;20198;-90
2022/07/03 04:40:29;;;;;;;8.57;7.13;;;;;;;31.71;44.08;94993.13;5092187;28;20676;-89
2022/07/03 04:42:56;;;;;;;8.52;7.65;;;;;;;32.39;42.48;94999.78;5092224;28;20277;-89
2022/07/03 04:45:23;;;;;;;8.15;7.03;;;;;;;32.48;42.18;94987.84;5091668;28;20222;-88
2022/07/03 04:47:50;;;;;;;9.90;7.55;;;;;;;32.06;42.42;95001.47;5092570;28;20256;-88
2022/07/03 04:50:16;;;;;;;8.23;7.18;;;;;;;31.89;43.18;95002.91;5092293;28;20627;-89
2022/07/03 04:52:43;;;;;;;8.68;7.30;;;;;;;31.83;43.11;94999.13;5092840;28;20295;-87
2022/07/03 04:55:11;;;;;;;8.38;7.45;;;;;;;31.82;42.92;95003.19;5091796;28;20230;-89
2022/07/03 04:57:39;;;;;;;8.30;7.40;;;;;;;31.99;43.09;95001.72;5091361;28;20214;-89
2022/07/03 05:00:07;;;;;;;8.25;7.45;;;;;;;32.73;41.11;95003.69;5093373;28;20222;-90
2022/07/03 05:02:34;;;;;;;8.13;7.30;;;;;;;31.36;43.55;94999.97;5097398;28;20222;-87
2022/07/03 05:05:01;;;;;;;9.95;7.38;;;;;;;30.31;45.76;95005.78;5094141;28;20222;-89
2022/07/03 05:07:28;;;;;;;9.40;7.22;;;;;;;30.61;45.70;95010.06;5092096;28;20597;-91
2022/07/03 05:09:55;;;;;;;7.45;6.57;;;;;;;31.13;43.98;94997.59;5092043;28;20643;-88
2022/07/03 05:12:22;;;;;;;7.93;7.13;;;;;;;31.43;43.32;94994.91;5091666;28;20222;-90
2022/07/03 05:14:50;;;;;;;7.40;6.70;;;;;;;32.55;41.05;94997.97;5092482;28;20206;-89
2022/07/03 05:17:18;;;;;;;7.25;6.55;;;;;;;33.28;39.99;94987.00;5091721;28;20276;-90
2022/07/03 05:19:44;;;;;;;6.53;5.85;;;;;;;33.30;38.89;94987.31;5091826;28;20198;-89
2022/07/03 05:22:11;;;;;;;7.05;6.35;;;;;;;32.61;39.55;94990.53;5092098;28;20268;-88
2022/07/03 05:24:38;;;;;;;7.60;6.43;;;;;;;33.09;39.77;94989.75;5091322;28;20230;-91
2022/07/03 05:27:06;;;;;;;7.22;6.50;;;;;;;32.96;39.92;94997.53;5077990;28;20256;-90
2022/07/03 05:29:33;;;;;;;8.50;6.63;;;;;;;32.94;40.44;95000.00;5092079;28;20194;-90
2022/07/03 05:32:01;;;;;;;6.97;6.28;;;;;;;32.84;39.63;94992.81;5092876;28;20317;-89
2022/07/03 05:34:28;;;;;;;8.68;6.82;;;;;;;32.97;38.97;94996.28;5092219;28;20275;-91
2022/07/03 05:36:56;;;;;;;7.10;6.43;;;;;;;32.37;40.07;94999.50;5092224;28;20727;-89
2022/07/03 05:39:37;;;;;;;7.32;6.63;;;;;;;31.91;40.93;95006.03;5092431;28;20225;-84
2022/07/03 05:42:05;;;;;;;12.55;7.05;;;;;;;33.68;38.31;94993.25;5092348;28;20194;-90
2022/07/03 05:44:32;;;;;;;7.10;6.40;;;;;;;32.79;39.49;95010.28;5092126;28;20194;-89
2022/07/03 05:46:59;;;;;;;6.47;5.70;;;;;;;33.38;38.86;95009.00;5092345;28;20210;-90
2022/07/03 05:49:27;;;;;;;7.05;6.30;;;;;;;33.43;38.80;95016.03;5092401;28;20252;-89
2022/07/03 05:51:54;;;;;;;8.48;6.55;;;;;;;31.33;42.21;95023.28;5092885;28;20700;-87
2022/07/03 05:54:21;;;;;;;6.78;6.07;;;;;;;31.55;42.17;95018.50;5092691;28;20620;-84
2022/07/03 05:56:48;;;;;;;7.35;6.60;;;;;;;32.01;41.39;95011.22;5093254;28;20665;-89
2022/07/03 05:59:14;;;;;;;8.55;6.20;;;;;;;31.26;41.93;95017.94;5094139;28;20230;-90
2022/07/03 06:01:41;;;;;;;7.13;6.43;;;;;;;32.59;40.56;95016.25;5094065;28;20263;-92
2022/07/03 06:04:08;;;;;;;9.30;6.75;;;;;;;33.37;38.17;95013.06;5093233;28;20419;-89
2022/07/03 06:06:36;;;;;;;6.38;5.78;;;;;;;35.20;35.38;95019.09;5092259;28;20233;-92
2022/07/03 06:09:03;;;;;;;6.78;6.10;;;;;;;32.46;39.33;95016.34;5093921;28;20604;-89
2022/07/03 06:11:30;;;;;;;9.10;6.45;;;;;;;33.54;37.32;95016.38;5097347;28;20576;-85
2022/07/03 06:13:57;;;;;;;8.30;6.45;;;;;;;32.45;39.42;95017.59;5097040;28;20564;-92
2022/07/03 06:16:24;;;;;;;9.00;7.03;;;;;;;32.79;38.79;95024.31;5097700;28;20700;-90
2022/07/03 06:18:50;;;;;;;8.80;6.40;;;;;;;34.62;36.31;95018.72;5095936;28;20601;-88
2022/07/03 06:21:17;;;;;;;6.90;6.18;;;;;;;34.88;35.86;95014.25;5095263;28;20653;-86
2022/07/03 06:23:45;;;;;;;8.48;6.32;;;;;;;34.08;37.52;95014.78;5087135;28;20218;-81
2022/07/03 06:26:12;;;;;;;7.50;6.38;;;;;;;35.60;35.95;95013.06;5093341;28;20230;-80
2022/07/03 06:28:39;;;;;;;7.60;6.80;;;;;;;35.91;33.65;95007.03;5093924;28;20255;-83
2022/07/03 06:31:06;;;;;;;7.93;7.10;;;;;;;35.36;34.32;95019.97;5093240;28;20230;-82
2022/07/03 06:33:32;;;;;;;9.55;6.55;;;;;;;34.19;36.10;95020.69;5088784;28;20222;-82
2022/07/03 06:35:59;;;;;;;7.38;6.68;;;;;;;35.12;35.12;95017.91;5093870;28;20206;-86
2022/07/03 06:38:26;;;;;;;7.10;6.40;;;;;;;35.85;34.49;95011.00;5094860;28;20708;-85
2022/07/03 06:40:54;;;;;;;7.03;6.30;;;;;;;34.27;36.12;95019.16;5093200;28;20606;-83
2022/07/03 06:43:21;;;;;;;7.32;6.45;;;;;;;32.88;38.65;95013.09;5087493;28;20202;-82
2022/07/03 06:45:48;;;;;;;7.82;6.65;;;;;;;32.77;38.51;95021.97;5093702;28;20226;-84
2022/07/03 06:48:15;;;;;;;7.00;6.30;;;;;;;33.50;37.74;95021.34;5093689;28;20259;-83
2022/07/03 06:50:41;;;;;;;8.32;6.55;;;;;;;35.07;34.50;95010.09;5093410;28;20229;-83
2022/07/03 06:53:08;;;;;;;8.60;6.65;;;;;;;35.07;34.01;95004.47;5093698;28;20280;-82
2022/07/03 06:55:35;;;;;;;7.60;6.40;;;;;;;34.81;34.86;95009.00;5093388;28;20248;-83
2022/07/03 06:58:03;;;;;;;8.15;6.43;;;;;;;34.07;36.27;95016.03;5094085;28;20272;-82
2022/07/03 07:00:30;;;;;;;7.38;6.57;;;;;;;31.78;39.77;95011.72;5093165;28;20234;-81
2022/07/03 07:02:57;;;;;;;8.27;6.82;;;;;;;33.50;36.92;95005.28;5093516;28;20251;-84
2022/07/03 07:05:23;;;;;;;9.73;7.30;;;;;;;33.98;36.27;95004.81;5092624;28;20693;-85
2022/07/03 07:07:50;;;;;;;7.97;7.15;;;;;;;33.62;36.98;95012.00;5093716;28;20275;-82
2022/07/03 07:10:17;;;;;;;8.05;6.40;;;;;;;34.03;37.63;95007.00;5093274;28;20237;-85
2022/07/03 07:12:44;;;;;;;7.30;6.57;;;;;;;34.04;36.52;95002.91;5093086;28;20275;-85
2022/07/03 07:15:12;;;;;;;8.65;6.35;;;;;;;33.24;37.98;95004.00;5092999;28;20725;-84
2022/07/03 07:17:39;;;;;;;9.75;6.75;;;;;;;34.12;36.96;95007.75;5092987;28;20214;-85
2022/07/03 07:20:07;;;;;;;8.57;6.55;;;;;;;34.63;36.69;94994.97;5092657;28;20608;-82
2022/07/03 07:22:34;;;;;;;7.85;6.95;;;;;;;34.41;35.62;95003.66;5092954;28;20283;-84
2022/07/03 07:25:01;;;;;;;7.15;6.35;;;;;;;34.75;35.74;94989.09;5091683;28;20646;-83
2022/07/03 07:27:28;;;;;;;7.95;6.90;;;;;;;33.42;37.70;95003.25;5093224;28;20183;-86
2022/07/03 07:29:55;;;;;;;7.53;6.82;;;;;;;33.26;38.02;94995.09;5093151;28;20227;-82
2022/07/03 07:32:23;;;;;;;9.00;6.25;;;;;;;32.75;39.95;94990.00;5092828;28;20221;-85
2022/07/03 07:34:50;;;;;;;8.00;6.82;;;;;;;33.36;37.80;94982.63;5092323;28;20203;-83
2022/07/03 07:37:17;;;;;;;9.38;6.28;;;;;;;33.16;38.58;94995.06;5092503;28;20283;-85
2022/07/03 07:39:44;;;;;;;7.00;6.25;;;;;;;32.97;38.16;94984.25;5092586;28;20553;-85
2022/07/03 07:42:10;;;;;;;7.03;6.20;;;;;;;33.12;38.27;94983.22;5092831;28;20224;-87
2022/07/03 07:44:37;;;;;;;7.60;6.78;;;;;;;32.34;40.38;94994.78;5092286;28;20351;-85
2022/07/03 07:47:04;;;;;;;7.80;7.03;;;;;;;30.97;41.89;94996.47;5092038;28;20245;-81
2022/07/03 07:49:33;;;;;;;7.82;6.43;;;;;;;32.59;39.47;94999.41;5092643;28;20287;-87
2022/07/03 07:51:59;;;;;;;9.00;6.70;;;;;;;32.13;40.13;95001.19;5092225;28;20276;-85
2022/07/03 07:54:26;;;;;;;7.63;6.68;;;;;;;32.07;39.97;94991.81;5091912;28;20375;-81
2022/07/03 07:56:53;;;;;;;7.30;6.43;;;;;;;31.63;41.09;94997.41;5091719;28;20226;-83
2022/07/03 07:59:20;;;;;;;8.95;6.50;;;;;;;31.35;41.46;94984.41;5092757;28;20206;-87
2022/07/03 08:07:15;;;;;;;7.40;6.60;;;;;;;31.77;40.98;94985.69;5091846;28;20596;-79
2022/07/03 08:09:42;;;;;;;8.15;6.95;;;;;;;30.57;44.01;94987.03;5092335;28;20224;-81
2022/07/03 08:12:09;;;;;;;8.00;6.57;;;;;;;30.78;45.58;94980.72;5091688;28;20218;-83
2022/07/03 08:14:37;;;;;;;8.80;6.90;;;;;;;31.56;43.29;94975.25;5092411;28;20206;-85
2022/07/03 08:17:04;;;;;;;9.98;7.10;;;;;;;32.14;41.02;94971.91;5092339;28;20300;-86
2022/07/03 08:19:31;;;;;;;7.05;6.20;;;;;;;32.40;41.23;94964.88;5091574;28;20664;-82
2022/07/03 08:21:58;;;;;;;8.50;6.72;;;;;;;33.62;39.75;94966.25;5093408;28;20310;-85
2022/07/03 08:24:26;;;;;;;8.88;7.18;;;;;;;33.44;41.07;94958.59;5092444;28;20218;-86
2022/07/03 08:26:53;;;;;;;8.45;6.93;;;;;;;32.30;42.10;94966.09;5091260;28;20724;-85
2022/07/03 08:29:20;;;;;;;6.85;6.13;;;;;;;32.32;41.44;94963.63;5092365;28;20223;-83
2022/07/03 08:31:47;;;;;;;6.53;5.95;;;;;;;31.47;43.19;94966.75;5093338;28;20229;-83
2022/07/03 08:34:14;;;;;;;6.38;5.78;;;;;;;32.01;43.01;94976.81;5092232;28;20218;-82
2022/07/03 08:36:42;;;;;;;6.70;6.10;;;;;;;31.90;42.53;94973.63;5092890;28;20642;-83
2022/07/03 08:39:09;;;;;;;6.60;6.00;;;;;;;31.60;42.66;94973.09;5092271;28;20665;-81
2022/07/03 08:41:40;;;;;;;9.35;5.97;;;;;;;31.77;42.10;94963.28;5095806;28;20665;-86
2022/07/03 08:44:08;;;;;;;6.60;6.00;;;;;;;32.40;41.46;94967.69;5095505;28;20194;-86
2022/07/03 08:46:36;;;;;;;6.65;6.00;;;;;;;31.80;41.75;94964.41;5092277;28;20650;-84
2022/07/03 08:49:03;;;;;;;6.43;5.82;;;;;;;31.17;42.86;94959.03;5091230;28;20692;-80
2022/07/03 08:51:30;;;;;;;6.53;5.93;;;;;;;30.95;43.94;94970.94;5091653;28;20801;-86
2022/07/03 08:54:01;;;;;;;6.22;5.63;;;;;;;30.81;45.03;94960.25;5081161;28;20218;-90
2022/07/03 08:56:28;;;;;;;6.65;5.95;;;;;;;29.78;45.13;94968.22;5092497;28;20309;-85
2022/07/03 08:58:58;;;;;;;6.10;5.50;;;;;;;30.36;43.38;94961.25;5091572;28;20197;-88
2022/07/03 09:01:26;;;;;;;6.47;5.38;;;;;;;31.19;43.91;94956.56;5093400;28;20230;-86
2022/07/03 09:03:54;;;;;;;5.95;5.32;;;;;;;31.01;43.16;94957.97;5091455;28;20230;-77
2022/07/03 09:06:22;;;;;;;5.70;5.07;;;;;;;30.77;41.47;94959.56;5090520;28;20283;-82
2022/07/03 09:08:50;;;;;;;6.07;5.20;;;;;;;31.45;41.19;94952.44;5090876;28;20212;-87
2022/07/03 09:11:18;;;;;;;6.55;5.35;;;;;;;31.15;39.97;94950.34;5090615;28;20639;-80
2022/07/03 09:13:45;;;;;;;5.82;5.25;;;;;;;30.91;41.91;94959.09;5091516;28;20251;-79
2022/07/03 09:16:17;;;;;;;5.93;5.38;;;;;;;31.27;42.34;94944.69;5092836;28;20312;-82
2022/07/03 09:18:45;;;;;;;7.35;5.45;;;;;;;31.16;42.67;94952.69;5091998;28;20214;-82
2022/07/03 09:21:13;;;;;;;5.13;4.65;;;;;;;30.69;41.03;94953.44;5093090;28;20786;-77
2022/07/03 09:23:41;;;;;;;4.65;4.22;;;;;;;30.46;41.65;94958.59;5091711;28;20202;-76
2022/07/03 09:26:14;;;;;;;5.60;5.10;;;;;;;31.27;40.79;94947.50;5091408;28;20770;-81
2022/07/03 09:28:51;;;;;;;5.50;4.88;;;;;;;31.28;40.37;94942.66;5091321;28;20222;-82
2022/07/03 09:31:20;;;;;;;5.68;5.13;;;;;;;31.60;40.87;94947.88;5091623;28;20194;-89
2022/07/03 09:34:07;;;;;;;5.60;5.10;;;;;;;32.08;40.53;94942.91;5091119;28;20746;-82
2022/07/03 09:36:44;;;;;;;5.85;5.32;;;;;;;32.64;39.85;94944.72;5090722;28;20546;-83
2022/07/03 09:39:16;;;;;;;6.20;5.43;;;;;;;31.43;41.10;94938.13;5091513;28;20568;-80
2022/07/03 09:41:58;;;;;;;5.20;4.72;;;;;;;30.81;42.28;94943.44;5079009;28;20205;-86
2022/07/03 09:44:33;;;;;;;5.10;4.60;;;;;;;30.56;41.84;94946.28;5088417;28;20244;-85
2022/07/03 09:47:12;;;;;;;5.90;5.40;;;;;;;30.15;43.61;94942.38;5096089;28;20221;-82
2022/07/03 09:49:51;;;;;;;5.38;4.88;;;;;;;30.04;42.65;94953.09;5097043;28;20943;-89
2022/07/03 09:52:37;;;;;;;6.72;4.88;;;;;;;30.27;41.56;94947.19;5095828;28;20241;-81
2022/07/03 09:55:15;;;;;;;6.03;5.07;;;;;;;30.38;43.54;94939.22;5095467;28;20629;-86
2022/07/03 09:57:44;;;;;;;5.68;4.68;;;;;;;30.70;39.99;94940.22;5096172;28;20267;-80
2022/07/03 10:00:13;;;;;;;5.65;5.10;;;;;;;31.37;39.33;94929.50;5094805;28;20317;-75
2022/07/03 10:02:55;;;;;;;7.25;4.80;;;;;;;32.25;38.86;94921.84;5095085;28;20202;-80
2022/07/03 10:05:23;;;;;;;6.53;5.20;;;;;;;32.85;38.25;94921.41;5094157;28;20272;-81
2022/07/03 10:07:52;;;;;;;5.30;4.80;;;;;;;32.97;37.09;94920.47;5094224;28;20230;-82
2022/07/03 10:10:21;;;;;;;4.50;4.10;;;;;;;33.28;33.88;94925.22;5094317;28;20306;-82
2022/07/03 10:12:50;;;;;;;4.30;3.90;;;;;;;33.64;32.52;94919.53;5095228;28;20228;-83
2022/07/03 10:15:17;;;;;;;5.00;4.43;;;;;;;33.22;34.88;94910.19;5094908;28;20226;-85
2022/07/03 10:17:47;;;;;;;6.80;5.20;;;;;;;33.29;35.82;94921.94;5094790;28;20214;-84
2022/07/03 10:20:17;;;;;;;7.22;4.30;;;;;;;33.25;35.79;94909.28;5094591;28;20638;-78
2022/07/03 10:22:46;;;;;;;5.85;4.57;;;;;;;33.03;31.20;94901.78;5094083;28;20626;-79
2022/07/03 10:25:14;;;;;;;4.78;4.13;;;;;;;32.78;32.29;94910.47;5094070;28;20234;-85
2022/07/03 10:27:42;;;;;;;4.43;4.03;;;;;;;32.30;33.96;94909.22;5094524;28;20226;-79
2022/07/03 10:30:10;;;;;;;4.40;4.00;;;;;;;32.82;31.74;94911.09;5094673;28;20206;-80
2022/07/03 10:32:39;;;;;;;4.00;3.70;;;;;;;33.82;31.07;94896.28;5094553;28;20222;-82
2022/07/03 10:35:07;;;;;;;4.45;3.60;;;;;;;34.23;29.54;94903.16;5086259;28;20209;-85
2022/07/03 10:37:51;;;;;;;4.30;3.95;;;;;;;33.75;29.59;94896.59;5094765;28;20194;-86
2022/07/03 10:46:11;;;;;;;4.22;3.58;;;;;;;34.64;28.50;94895.97;5093756;28;20237;-84
2022/07/03 10:49:00;;;;;;;7.30;3.92;;;;;;;34.05;28.32;94886.34;5093874;28;20202;-84
2022/07/03 10:51:28;;;;;;;3.67;3.20;;;;;;;34.02;27.50;94898.56;5080325;28;20770;-83
2022/07/03 10:54:17;;;;;;;3.92;3.58;;;;;;;34.49;27.10;94893.06;5094250;28;20298;-82
2022/07/03 10:57:09;;;;;;;4.53;4.13;;;;;;;33.77;28.96;94889.25;5094347;28;20229;-79
2022/07/03 11:00:16;;;;;;;3.67;3.38;;;;;;;33.05;30.10;94879.63;5080828;28;20226;-79
2022/07/03 11:02:44;;;;;;;4.00;3.65;;;;;;;32.11;31.22;94885.91;5094357;28;20218;-81
2022/07/03 11:05:13;;;;;;;3.85;3.45;;;;;;;31.58;30.94;94885.91;5093960;28;20198;-82
2022/07/03 11:08:03;;;;;;;4.28;3.78;;;;;;;31.31;32.76;94880.13;5094932;28;20570;-87
2022/07/03 11:10:32;;;;;;;4.22;3.92;;;;;;;31.55;33.13;94884.06;5093801;28;20236;-85
2022/07/03 11:13:03;;;;;;;5.40;3.92;;;;;;;31.77;32.82;94878.44;5093742;28;20291;-84
2022/07/03 11:15:31;;;;;;;4.53;4.13;;;;;;;31.37;33.29;94867.91;5093726;28;20591;-75
2022/07/03 11:18:27;;;;;;;4.13;3.83;;;;;;;30.83;34.76;94876.63;5092667;28;20764;-80
2022/07/03 11:21:34;;;;;;;4.40;4.00;;;;;;;30.81;35.30;94867.91;5091721;28;20571;-80
2022/07/03 11:24:37;;;;;;;4.20;3.80;;;;;;;31.03;35.24;94865.91;5080188;28;20260;-81
2022/07/03 11:27:19;;;;;;;6.20;5.57;;;;;;;31.00;35.01;94861.25;5092726;28;20238;-85
2022/07/03 11:29:51;;;;;;;4.32;3.92;;;;;;;30.88;34.48;94859.28;5092523;28;20260;-82
2022/07/03 11:32:44;;;;;;;5.97;4.40;;;;;;;31.11;33.75;94849.69;5093868;28;20190;-80
2022/07/03 11:35:46;;;;;;;6.35;4.22;;;;;;;31.62;35.18;94843.78;5092822;28;20211;-80
2022/07/03 11:38:15;;;;;;;4.60;4.10;;;;;;;31.64;34.09;94844.91;5093570;28;20288;-82
2022/07/03 11:40:44;;;;;;;4.30;3.90;;;;;;;31.87;33.29;94842.81;5092145;28;20752;-81
2022/07/03 11:43:13;;;;;;;6.18;3.95;;;;;;;31.90;33.48;94841.91;5092778;28;20225;-81
2022/07/03 11:45:40;;;;;;;4.72;4.28;;;;;;;32.29;32.90;94843.94;5092769;28;20218;-90
2022/07/03 11:48:09;;;;;;;4.28;3.97;;;;;;;32.62;33.75;94834.97;5092529;28;20230;-81
2022/07/03 11:50:40;;;;;;;4.55;4.15;;;;;;;32.46;33.34;94834.00;5093035;28;20219;-78
2022/07/03 11:53:31;;;;;;;5.28;4.07;;;;;;;31.98;33.34;94837.59;5081443;28;20202;-79
2022/07/03 11:56:01;;;;;;;4.63;4.22;;;;;;;32.13;34.92;94827.34;5066519;28;20214;-80
2022/07/03 11:58:42;;;;;;;5.00;4.10;;;;;;;32.00;33.58;94846.28;5097181;28;20271;-83
2022/07/03 12:01:10;;;;;;;4.82;4.20;;;;;;;31.62;35.84;94840.97;5094245;28;20308;-86